sensor_id;sensor_type;location;lat;lon;timestamp;P1;durP1;ratioP1;P2;durP2;ratioP2
11082;SDS011;5595;50.186;8.468;2023-08-06T00:00:37;1.90;;;1.35;;
11082;SDS011;5595;50.186;8.468;2023-08-06T00:03:04;1.45;;;1.30;;
11082;SDS011;5595;50.186;8.468;2023-08-06T00:05:32;2.30;;;1.40;;
11082;SDS011;5595;50.186;8.468;2023-08-06T00:07:59;1.42;;;1.33;;
11082;SDS011;5595;50.186;8.468;2023-08-06T00:10:26;2.03;;;1.42;;
11082;SDS011;5595;50.186;8.468;2023-08-06T00:12:52;1.67;;;1.02;;
11082;SDS011;5595;50.186;8.468;2023-08-06T00:15:21;2.05;;;1.60;;
11082;SDS011;5595;50.186;8.468;2023-08-06T00:17:48;1.85;;;1.40;;
11082;SDS011;5595;50.186;8.468;2023-08-06T00:20:15;1.10;;;1.10;;
11082;SDS011;5595;50.186;8.468;2023-08-06T00:22:43;1.52;;;1.20;;
11082;SDS011;5595;50.186;8.468;2023-08-06T00:25:10;1.40;;;1.05;;
11082;SDS011;5595;50.186;8.468;2023-08-06T00:27:37;2.33;;;1.10;;
11082;SDS011;5595;50.186;8.468;2023-08-06T00:30:04;3.33;;;1.20;;
11082;SDS011;5595;50.186;8.468;2023-08-06T00:32:32;1.02;;;0.98;;
11082;SDS011;5595;50.186;8.468;2023-08-06T00:34:59;1.65;;;1.55;;
11082;SDS011;5595;50.186;8.468;2023-08-06T00:37:25;1.95;;;1.42;;
11082;SDS011;5595;50.186;8.468;2023-08-06T00:39:53;2.10;;;1.23;;
11082;SDS011;5595;50.186;8.468;2023-08-06T00:42:20;1.60;;;1.50;;
11082;SDS011;5595;50.186;8.468;2023-08-06T00:44:47;2.08;;;1.67;;
11082;SDS011;5595;50.186;8.468;2023-08-06T00:47:14;2.10;;;1.90;;
11082;SDS011;5595;50.186;8.468;2023-08-06T00:49:42;4.40;;;2.67;;
11082;SDS011;5595;50.186;8.468;2023-08-06T00:52:09;4.93;;;2.90;;
11082;SDS011;5595;50.186;8.468;2023-08-06T00:54:38;5.05;;;3.55;;
11082;SDS011;5595;50.186;8.468;2023-08-06T00:57:06;3.35;;;3.00;;
11082;SDS011;5595;50.186;8.468;2023-08-06T00:59:34;5.72;;;3.25;;
11082;SDS011;5595;50.186;8.468;2023-08-06T01:02:01;3.47;;;3.10;;
11082;SDS011;5595;50.186;8.468;2023-08-06T01:04:28;3.53;;;3.03;;
11082;SDS011;5595;50.186;8.468;2023-08-06T01:06:58;3.83;;;3.17;;
11082;SDS011;5595;50.186;8.468;2023-08-06T01:09:32;5.63;;;4.13;;
11082;SDS011;5595;50.186;8.468;2023-08-06T01:12:12;3.88;;;3.40;;
11082;SDS011;5595;50.186;8.468;2023-08-06T01:14:51;3.95;;;3.50;;
11082;SDS011;5595;50.186;8.468;2023-08-06T01:17:26;4.03;;;3.50;;
11082;SDS011;5595;50.186;8.468;2023-08-06T01:19:53;4.28;;;3.33;;
11082;SDS011;5595;50.186;8.468;2023-08-06T01:22:21;3.85;;;3.53;;
11082;SDS011;5595;50.186;8.468;2023-08-06T01:24:48;4.60;;;3.97;;
11082;SDS011;5595;50.186;8.468;2023-08-06T01:27:20;4.68;;;3.70;;
11082;SDS011;5595;50.186;8.468;2023-08-06T01:29:55;5.50;;;3.53;;
11082;SDS011;5595;50.186;8.468;2023-08-06T01:32:27;3.97;;;3.58;;
11082;SDS011;5595;50.186;8.468;2023-08-06T01:34:58;4.15;;;3.75;;
11082;SDS011;5595;50.186;8.468;2023-08-06T01:37:28;4.45;;;3.38;;
11082;SDS011;5595;50.186;8.468;2023-08-06T01:39:56;4.72;;;3.67;;
11082;SDS011;5595;50.186;8.468;2023-08-06T01:42:23;3.63;;;3.13;;
11082;SDS011;5595;50.186;8.468;2023-08-06T01:44:50;3.50;;;3.20;;
11082;SDS011;5595;50.186;8.468;2023-08-06T01:47:17;3.67;;;2.90;;
11082;SDS011;5595;50.186;8.468;2023-08-06T01:49:43;3.78;;;2.97;;
11082;SDS011;5595;50.186;8.468;2023-08-06T01:52:10;4.68;;;3.33;;
11082;SDS011;5595;50.186;8.468;2023-08-06T01:54:38;3.92;;;2.85;;
11082;SDS011;5595;50.186;8.468;2023-08-06T01:57:05;3.13;;;2.88;;
11082;SDS011;5595;50.186;8.468;2023-08-06T01:59:32;3.83;;;3.42;;
11082;SDS011;5595;50.186;8.468;2023-08-06T02:01:59;2.33;;;2.13;;
11082;SDS011;5595;50.186;8.468;2023-08-06T02:04:26;2.97;;;2.65;;
11082;SDS011;5595;50.186;8.468;2023-08-06T02:06:52;2.85;;;2.58;;
11082;SDS011;5595;50.186;8.468;2023-08-06T02:09:19;3.90;;;3.30;;
11082;SDS011;5595;50.186;8.468;2023-08-06T02:11:47;3.50;;;3.20;;
11082;SDS011;5595;50.186;8.468;2023-08-06T02:14:14;3.55;;;2.40;;
11082;SDS011;5595;50.186;8.468;2023-08-06T02:16:41;3.50;;;2.33;;
11082;SDS011;5595;50.186;8.468;2023-08-06T02:19:07;2.78;;;2.58;;
11082;SDS011;5595;50.186;8.468;2023-08-06T02:21:34;4.25;;;3.10;;
11082;SDS011;5595;50.186;8.468;2023-08-06T02:24:01;4.22;;;2.60;;
11082;SDS011;5595;50.186;8.468;2023-08-06T02:26:28;4.07;;;2.65;;
11082;SDS011;5595;50.186;8.468;2023-08-06T02:28:56;4.82;;;2.85;;
11082;SDS011;5595;50.186;8.468;2023-08-06T02:31:23;4.40;;;2.65;;
11082;SDS011;5595;50.186;8.468;2023-08-06T02:33:50;6.25;;;2.10;;
11082;SDS011;5595;50.186;8.468;2023-08-06T02:36:17;2.67;;;2.22;;
11082;SDS011;5595;50.186;8.468;2023-08-06T02:38:43;2.97;;;2.42;;
11082;SDS011;5595;50.186;8.468;2023-08-06T02:41:10;5.15;;;3.20;;
11082;SDS011;5595;50.186;8.468;2023-08-06T02:43:37;3.28;;;2.65;;
11082;SDS011;5595;50.186;8.468;2023-08-06T02:46:05;3.50;;;2.85;;
11082;SDS011;5595;50.186;8.468;2023-08-06T02:48:32;3.53;;;2.63;;
11082;SDS011;5595;50.186;8.468;2023-08-06T02:50:59;5.47;;;3.60;;
11082;SDS011;5595;50.186;8.468;2023-08-06T02:53:26;3.85;;;3.20;;
11082;SDS011;5595;50.186;8.468;2023-08-06T02:55:52;4.25;;;3.20;;
11082;SDS011;5595;50.186;8.468;2023-08-06T02:58:19;3.35;;;3.05;;
11082;SDS011;5595;50.186;8.468;2023-08-06T03:00:58;3.65;;;3.17;;
11082;SDS011;5595;50.186;8.468;2023-08-06T03:03:27;3.88;;;2.88;;
11082;SDS011;5595;50.186;8.468;2023-08-06T03:05:53;4.13;;;2.90;;
11082;SDS011;5595;50.186;8.468;2023-08-06T03:08:20;3.17;;;2.90;;
11082;SDS011;5595;50.186;8.468;2023-08-06T03:10:47;4.35;;;3.08;;
11082;SDS011;5595;50.186;8.468;2023-08-06T03:13:14;2.88;;;2.50;;
11082;SDS011;5595;50.186;8.468;2023-08-06T03:15:42;3.85;;;3.05;;
11082;SDS011;5595;50.186;8.468;2023-08-06T03:18:09;4.00;;;3.10;;
11082;SDS011;5595;50.186;8.468;2023-08-06T03:20:37;3.10;;;2.80;;
11082;SDS011;5595;50.186;8.468;2023-08-06T03:23:03;3.53;;;2.95;;
11082;SDS011;5595;50.186;8.468;2023-08-06T03:25:30;4.38;;;2.63;;
11082;SDS011;5595;50.186;8.468;2023-08-06T03:27:57;2.70;;;2.50;;
11082;SDS011;5595;50.186;8.468;2023-08-06T03:30:24;3.45;;;2.28;;
11082;SDS011;5595;50.186;8.468;2023-08-06T03:32:50;4.45;;;2.80;;
11082;SDS011;5595;50.186;8.468;2023-08-06T03:35:17;2.95;;;2.63;;
11082;SDS011;5595;50.186;8.468;2023-08-06T03:37:45;3.08;;;2.35;;
11082;SDS011;5595;50.186;8.468;2023-08-06T03:40:13;2.55;;;2.35;;
11082;SDS011;5595;50.186;8.468;2023-08-06T03:42:40;2.88;;;2.58;;
11082;SDS011;5595;50.186;8.468;2023-08-06T03:45:07;3.90;;;2.53;;
11082;SDS011;5595;50.186;8.468;2023-08-06T03:47:34;2.28;;;2.08;;
11082;SDS011;5595;50.186;8.468;2023-08-06T03:50:01;2.42;;;2.10;;
11082;SDS011;5595;50.186;8.468;2023-08-06T03:52:29;2.40;;;2.20;;
11082;SDS011;5595;50.186;8.468;2023-08-06T03:54:57;2.47;;;2.22;;
11082;SDS011;5595;50.186;8.468;2023-08-06T03:57:24;3.25;;;2.05;;
11082;SDS011;5595;50.186;8.468;2023-08-06T03:59:50;2.25;;;2.08;;
11082;SDS011;5595;50.186;8.468;2023-08-06T04:02:17;2.33;;;2.13;;
11082;SDS011;5595;50.186;8.468;2023-08-06T04:04:44;2.08;;;1.88;;
11082;SDS011;5595;50.186;8.468;2023-08-06T04:07:11;2.60;;;1.73;;
11082;SDS011;5595;50.186;8.468;2023-08-06T04:09:50;2.80;;;1.67;;
11082;SDS011;5595;50.186;8.468;2023-08-06T04:12:22;2.83;;;1.88;;
11082;SDS011;5595;50.186;8.468;2023-08-06T04:14:49;2.60;;;1.80;;
11082;SDS011;5595;50.186;8.468;2023-08-06T04:17:17;2.42;;;1.92;;
11082;SDS011;5595;50.186;8.468;2023-08-06T04:19:45;2.58;;;1.90;;
11082;SDS011;5595;50.186;8.468;2023-08-06T04:22:13;2.03;;;1.83;;
11082;SDS011;5595;50.186;8.468;2023-08-06T04:24:41;2.33;;;2.13;;
11082;SDS011;5595;50.186;8.468;2023-08-06T04:27:08;3.15;;;1.95;;
11082;SDS011;5595;50.186;8.468;2023-08-06T04:29:36;1.90;;;1.80;;
11082;SDS011;5595;50.186;8.468;2023-08-06T04:32:04;4.00;;;2.22;;
11082;SDS011;5595;50.186;8.468;2023-08-06T04:34:32;3.40;;;1.92;;
11082;SDS011;5595;50.186;8.468;2023-08-06T04:36:59;2.33;;;1.90;;
11082;SDS011;5595;50.186;8.468;2023-08-06T04:39:26;2.72;;;2.20;;
11082;SDS011;5595;50.186;8.468;2023-08-06T04:41:53;1.67;;;1.50;;
11082;SDS011;5595;50.186;8.468;2023-08-06T04:44:21;2.25;;;1.95;;
11082;SDS011;5595;50.186;8.468;2023-08-06T04:46:49;3.70;;;1.80;;
11082;SDS011;5595;50.186;8.468;2023-08-06T04:49:17;1.35;;;1.23;;
11082;SDS011;5595;50.186;8.468;2023-08-06T04:51:43;2.88;;;1.30;;
11082;SDS011;5595;50.186;8.468;2023-08-06T04:54:10;1.90;;;1.30;;
11082;SDS011;5595;50.186;8.468;2023-08-06T04:56:37;2.03;;;1.27;;
11082;SDS011;5595;50.186;8.468;2023-08-06T04:59:04;2.20;;;1.50;;
11082;SDS011;5595;50.186;8.468;2023-08-06T05:01:31;1.00;;;1.00;;
11082;SDS011;5595;50.186;8.468;2023-08-06T05:03:59;1.60;;;1.50;;
11082;SDS011;5595;50.186;8.468;2023-08-06T05:06:26;1.88;;;1.33;;
11082;SDS011;5595;50.186;8.468;2023-08-06T05:08:53;1.05;;;0.90;;
11082;SDS011;5595;50.186;8.468;2023-08-06T05:11:19;1.35;;;1.02;;
11082;SDS011;5595;50.186;8.468;2023-08-06T05:13:46;1.08;;;1.08;;
11082;SDS011;5595;50.186;8.468;2023-08-06T05:16:13;0.68;;;0.65;;
11082;SDS011;5595;50.186;8.468;2023-08-06T05:18:40;0.88;;;0.70;;
11082;SDS011;5595;50.186;8.468;2023-08-06T05:21:08;0.70;;;0.63;;
11082;SDS011;5595;50.186;8.468;2023-08-06T05:23:35;0.90;;;0.80;;
11082;SDS011;5595;50.186;8.468;2023-08-06T05:26:01;0.60;;;0.60;;
11082;SDS011;5595;50.186;8.468;2023-08-06T05:28:28;0.65;;;0.60;;
11082;SDS011;5595;50.186;8.468;2023-08-06T05:30:55;0.60;;;0.60;;
11082;SDS011;5595;50.186;8.468;2023-08-06T05:33:22;0.60;;;0.60;;
11082;SDS011;5595;50.186;8.468;2023-08-06T05:35:49;0.65;;;0.65;;
11082;SDS011;5595;50.186;8.468;2023-08-06T05:38:17;1.00;;;0.65;;
11082;SDS011;5595;50.186;8.468;2023-08-06T05:40:44;0.40;;;0.40;;
11082;SDS011;5595;50.186;8.468;2023-08-06T05:43:10;0.68;;;0.40;;
11082;SDS011;5595;50.186;8.468;2023-08-06T05:45:37;0.30;;;0.30;;
11082;SDS011;5595;50.186;8.468;2023-08-06T05:48:04;0.80;;;0.40;;
11082;SDS011;5595;50.186;8.468;2023-08-06T05:50:31;0.70;;;0.45;;
11082;SDS011;5595;50.186;8.468;2023-08-06T05:52:57;0.65;;;0.47;;
11082;SDS011;5595;50.186;8.468;2023-08-06T05:55:26;0.30;;;0.30;;
11082;SDS011;5595;50.186;8.468;2023-08-06T05:57:53;0.55;;;0.30;;
11082;SDS011;5595;50.186;8.468;2023-08-06T06:00:20;0.20;;;0.20;;
11082;SDS011;5595;50.186;8.468;2023-08-06T06:02:47;0.73;;;0.35;;
11082;SDS011;5595;50.186;8.468;2023-08-06T06:05:14;1.55;;;0.30;;
11082;SDS011;5595;50.186;8.468;2023-08-06T06:07:41;0.20;;;0.20;;
11082;SDS011;5595;50.186;8.468;2023-08-06T06:10:08;1.10;;;0.30;;
11082;SDS011;5595;50.186;8.468;2023-08-06T06:12:37;0.10;;;0.10;;
11082;SDS011;5595;50.186;8.468;2023-08-06T06:15:05;0.85;;;0.30;;
11082;SDS011;5595;50.186;8.468;2023-08-06T06:17:32;0.25;;;0.20;;
11082;SDS011;5595;50.186;8.468;2023-08-06T06:19:59;0.32;;;0.20;;
11082;SDS011;5595;50.186;8.468;2023-08-06T06:22:25;1.10;;;0.45;;
11082;SDS011;5595;50.186;8.468;2023-08-06T06:24:52;0.30;;;0.30;;
11082;SDS011;5595;50.186;8.468;2023-08-06T06:27:19;0.30;;;0.30;;
11082;SDS011;5595;50.186;8.468;2023-08-06T06:29:47;0.30;;;0.20;;
11082;SDS011;5595;50.186;8.468;2023-08-06T06:32:14;0.20;;;0.20;;
11082;SDS011;5595;50.186;8.468;2023-08-06T06:34:41;0.10;;;0.10;;
11082;SDS011;5595;50.186;8.468;2023-08-06T06:37:07;0.20;;;0.20;;
11082;SDS011;5595;50.186;8.468;2023-08-06T06:39:37;0.20;;;0.20;;
11082;SDS011;5595;50.186;8.468;2023-08-06T06:42:04;0.35;;;0.28;;
11082;SDS011;5595;50.186;8.468;2023-08-06T06:44:31;0.10;;;0.10;;
11082;SDS011;5595;50.186;8.468;2023-08-06T06:46:59;0.30;;;0.10;;
11082;SDS011;5595;50.186;8.468;2023-08-06T06:49:29;0.10;;;0.10;;
11082;SDS011;5595;50.186;8.468;2023-08-06T06:51:56;0.22;;;0.17;;
11082;SDS011;5595;50.186;8.468;2023-08-06T06:54:23;0.10;;;0.10;;
11082;SDS011;5595;50.186;8.468;2023-08-06T06:56:49;0.10;;;0.10;;
11082;SDS011;5595;50.186;8.468;2023-08-06T06:59:16;0.10;;;0.10;;
11082;SDS011;5595;50.186;8.468;2023-08-06T07:01:43;0.17;;;0.10;;
11082;SDS011;5595;50.186;8.468;2023-08-06T07:04:11;0.00;;;0.00;;
11082;SDS011;5595;50.186;8.468;2023-08-06T07:06:38;0.10;;;0.10;;
11082;SDS011;5595;50.186;8.468;2023-08-06T07:09:04;0.10;;;0.10;;
11082;SDS011;5595;50.186;8.468;2023-08-06T07:11:31;0.00;;;0.00;;
11082;SDS011;5595;50.186;8.468;2023-08-06T07:13:58;0.20;;;0.10;;
11082;SDS011;5595;50.186;8.468;2023-08-06T07:16:25;0.00;;;0.00;;
11082;SDS011;5595;50.186;8.468;2023-08-06T07:18:53;0.03;;;0.00;;
11082;SDS011;5595;50.186;8.468;2023-08-06T07:21:21;0.00;;;0.00;;
11082;SDS011;5595;50.186;8.468;2023-08-06T07:23:48;0.00;;;0.00;;
11082;SDS011;5595;50.186;8.468;2023-08-06T07:26:15;0.00;;;0.00;;
11082;SDS011;5595;50.186;8.468;2023-08-06T07:28:42;0.00;;;0.00;;
11082;SDS011;5595;50.186;8.468;2023-08-06T07:31:09;0.40;;;0.03;;
11082;SDS011;5595;50.186;8.468;2023-08-06T07:33:36;0.10;;;0.10;;
11082;SDS011;5595;50.186;8.468;2023-08-06T07:36:10;0.05;;;0.05;;
11082;SDS011;5595;50.186;8.468;2023-08-06T07:38:39;0.10;;;0.10;;
11082;SDS011;5595;50.186;8.468;2023-08-06T07:41:07;0.00;;;0.00;;
11082;SDS011;5595;50.186;8.468;2023-08-06T07:43:34;0.10;;;0.10;;
11082;SDS011;5595;50.186;8.468;2023-08-06T07:46:01;0.10;;;0.10;;
11082;SDS011;5595;50.186;8.468;2023-08-06T07:48:28;0.10;;;0.10;;
11082;SDS011;5595;50.186;8.468;2023-08-06T07:50:55;0.10;;;0.10;;
11082;SDS011;5595;50.186;8.468;2023-08-06T07:53:23;0.20;;;0.20;;
11082;SDS011;5595;50.186;8.468;2023-08-06T07:55:53;1.45;;;0.10;;
11082;SDS011;5595;50.186;8.468;2023-08-06T07:58:20;0.20;;;0.20;;
11082;SDS011;5595;50.186;8.468;2023-08-06T08:00:50;0.28;;;0.28;;
11082;SDS011;5595;50.186;8.468;2023-08-06T08:03:17;0.40;;;0.28;;
11082;SDS011;5595;50.186;8.468;2023-08-06T08:05:44;0.55;;;0.30;;
11082;SDS011;5595;50.186;8.468;2023-08-06T08:08:11;0.22;;;0.20;;
11082;SDS011;5595;50.186;8.468;2023-08-06T08:10:38;0.47;;;0.22;;
11082;SDS011;5595;50.186;8.468;2023-08-06T08:13:06;0.13;;;0.13;;
11082;SDS011;5595;50.186;8.468;2023-08-06T08:15:34;0.95;;;0.22;;
11082;SDS011;5595;50.186;8.468;2023-08-06T08:18:00;0.68;;;0.28;;
11082;SDS011;5595;50.186;8.468;2023-08-06T08:20:27;0.30;;;0.30;;
11082;SDS011;5595;50.186;8.468;2023-08-06T08:22:57;0.20;;;0.20;;
11082;SDS011;5595;50.186;8.468;2023-08-06T08:25:24;0.52;;;0.20;;
11082;SDS011;5595;50.186;8.468;2023-08-06T08:27:51;0.32;;;0.20;;
11082;SDS011;5595;50.186;8.468;2023-08-06T08:30:19;0.20;;;0.20;;
11082;SDS011;5595;50.186;8.468;2023-08-06T08:32:46;0.30;;;0.20;;
11082;SDS011;5595;50.186;8.468;2023-08-06T08:35:13;0.20;;;0.20;;
11082;SDS011;5595;50.186;8.468;2023-08-06T08:37:41;0.45;;;0.30;;
11082;SDS011;5595;50.186;8.468;2023-08-06T08:40:08;0.20;;;0.20;;
11082;SDS011;5595;50.186;8.468;2023-08-06T08:42:35;0.10;;;0.10;;
11082;SDS011;5595;50.186;8.468;2023-08-06T08:45:03;0.20;;;0.20;;
11082;SDS011;5595;50.186;8.468;2023-08-06T08:47:34;0.20;;;0.20;;
11082;SDS011;5595;50.186;8.468;2023-08-06T08:50:02;0.40;;;0.20;;
11082;SDS011;5595;50.186;8.468;2023-08-06T08:52:31;0.15;;;0.10;;
11082;SDS011;5595;50.186;8.468;2023-08-06T08:54:59;0.98;;;0.10;;
11082;SDS011;5595;50.186;8.468;2023-08-06T08:57:28;0.10;;;0.10;;
11082;SDS011;5595;50.186;8.468;2023-08-06T08:59:54;0.10;;;0.10;;
11082;SDS011;5595;50.186;8.468;2023-08-06T09:02:21;0.15;;;0.15;;
11082;SDS011;5595;50.186;8.468;2023-08-06T09:04:55;0.30;;;0.10;;
11082;SDS011;5595;50.186;8.468;2023-08-06T09:07:24;0.10;;;0.10;;
11082;SDS011;5595;50.186;8.468;2023-08-06T09:09:52;0.10;;;0.10;;
11082;SDS011;5595;50.186;8.468;2023-08-06T09:12:20;0.63;;;0.10;;
11082;SDS011;5595;50.186;8.468;2023-08-06T09:14:48;0.10;;;0.10;;
11082;SDS011;5595;50.186;8.468;2023-08-06T09:17:15;0.00;;;0.00;;
11082;SDS011;5595;50.186;8.468;2023-08-06T09:19:44;0.08;;;0.08;;
11082;SDS011;5595;50.186;8.468;2023-08-06T09:22:14;0.03;;;0.03;;
11082;SDS011;5595;50.186;8.468;2023-08-06T09:24:41;0.10;;;0.10;;
11082;SDS011;5595;50.186;8.468;2023-08-06T09:27:12;0.08;;;0.08;;
11082;SDS011;5595;50.186;8.468;2023-08-06T09:29:40;0.00;;;0.00;;
11082;SDS011;5595;50.186;8.468;2023-08-06T09:32:08;0.10;;;0.10;;
11082;SDS011;5595;50.186;8.468;2023-08-06T09:34:35;0.35;;;0.05;;
11082;SDS011;5595;50.186;8.468;2023-08-06T09:37:04;0.20;;;0.10;;
11082;SDS011;5595;50.186;8.468;2023-08-06T09:39:32;0.10;;;0.10;;
11082;SDS011;5595;50.186;8.468;2023-08-06T09:42:00;0.10;;;0.10;;
11082;SDS011;5595;50.186;8.468;2023-08-06T09:44:29;0.10;;;0.10;;
11082;SDS011;5595;50.186;8.468;2023-08-06T09:46:57;0.10;;;0.10;;
11082;SDS011;5595;50.186;8.468;2023-08-06T09:49:25;0.10;;;0.10;;
11082;SDS011;5595;50.186;8.468;2023-08-06T09:51:53;0.20;;;0.00;;
11082;SDS011;5595;50.186;8.468;2023-08-06T09:54:23;0.00;;;0.00;;
11082;SDS011;5595;50.186;8.468;2023-08-06T09:56:53;0.63;;;0.10;;
11082;SDS011;5595;50.186;8.468;2023-08-06T09:59:20;0.00;;;0.00;;
11082;SDS011;5595;50.186;8.468;2023-08-06T10:01:48;0.08;;;0.08;;
11082;SDS011;5595;50.186;8.468;2023-08-06T10:04:15;0.05;;;0.03;;
11082;SDS011;5595;50.186;8.468;2023-08-06T10:06:43;0.10;;;0.10;;
11082;SDS011;5595;50.186;8.468;2023-08-06T10:09:12;0.40;;;0.10;;
11082;SDS011;5595;50.186;8.468;2023-08-06T10:11:39;0.10;;;0.10;;
11082;SDS011;5595;50.186;8.468;2023-08-06T10:14:10;0.00;;;0.00;;
11082;SDS011;5595;50.186;8.468;2023-08-06T10:16:40;0.10;;;0.10;;
11082;SDS011;5595;50.186;8.468;2023-08-06T10:19:09;0.10;;;0.10;;
11082;SDS011;5595;50.186;8.468;2023-08-06T10:21:37;0.03;;;0.03;;
11082;SDS011;5595;50.186;8.468;2023-08-06T10:24:06;0.20;;;0.20;;
11082;SDS011;5595;50.186;8.468;2023-08-06T10:26:35;0.10;;;0.10;;
11082;SDS011;5595;50.186;8.468;2023-08-06T10:32:04;0.00;;;0.00;;
11082;SDS011;5595;50.186;8.468;2023-08-06T10:37:20;0.00;;;0.00;;
11082;SDS011;5595;50.186;8.468;2023-08-06T10:39:48;0.10;;;0.10;;
11082;SDS011;5595;50.186;8.468;2023-08-06T10:42:26;0.00;;;0.00;;
11082;SDS011;5595;50.186;8.468;2023-08-06T10:45:14;0.10;;;0.10;;
11082;SDS011;5595;50.186;8.468;2023-08-06T10:47:42;0.00;;;0.00;;
11082;SDS011;5595;50.186;8.468;2023-08-06T10:50:11;0.00;;;0.00;;
11082;SDS011;5595;50.186;8.468;2023-08-06T10:52:41;0.08;;;0.08;;
11082;SDS011;5595;50.186;8.468;2023-08-06T10:55:08;0.00;;;0.00;;
11082;SDS011;5595;50.186;8.468;2023-08-06T10:57:35;0.00;;;0.00;;
11082;SDS011;5595;50.186;8.468;2023-08-06T11:00:04;0.40;;;0.10;;
11082;SDS011;5595;50.186;8.468;2023-08-06T11:02:34;0.00;;;0.00;;
11082;SDS011;5595;50.186;8.468;2023-08-06T11:05:05;1.45;;;0.10;;
11082;SDS011;5595;50.186;8.468;2023-08-06T11:07:32;0.00;;;0.00;;
11082;SDS011;5595;50.186;8.468;2023-08-06T11:10:03;0.52;;;0.10;;
11082;SDS011;5595;50.186;8.468;2023-08-06T11:12:30;0.00;;;0.00;;
11082;SDS011;5595;50.186;8.468;2023-08-06T11:14:57;0.00;;;0.00;;
11082;SDS011;5595;50.186;8.468;2023-08-06T11:17:24;0.00;;;0.00;;
11082;SDS011;5595;50.186;8.468;2023-08-06T11:19:52;0.10;;;0.10;;
11082;SDS011;5595;50.186;8.468;2023-08-06T11:22:20;0.00;;;0.00;;
11082;SDS011;5595;50.186;8.468;2023-08-06T11:24:47;0.05;;;0.00;;
11082;SDS011;5595;50.186;8.468;2023-08-06T11:27:14;0.10;;;0.03;;
11082;SDS011;5595;50.186;8.468;2023-08-06T11:29:42;0.28;;;0.00;;
11082;SDS011;5595;50.186;8.468;2023-08-06T11:32:10;0.30;;;0.15;;
11082;SDS011;5595;50.186;8.468;2023-08-06T11:34:38;0.28;;;0.10;;
11082;SDS011;5595;50.186;8.468;2023-08-06T11:37:07;0.00;;;0.00;;
11082;SDS011;5595;50.186;8.468;2023-08-06T11:39:33;0.10;;;0.10;;
11082;SDS011;5595;50.186;8.468;2023-08-06T11:42:02;0.25;;;0.10;;
11082;SDS011;5595;50.186;8.468;2023-08-06T11:44:30;0.00;;;0.00;;
11082;SDS011;5595;50.186;8.468;2023-08-06T11:46:58;0.00;;;0.00;;
11082;SDS011;5595;50.186;8.468;2023-08-06T11:49:39;0.00;;;0.00;;
11082;SDS011;5595;50.186;8.468;2023-08-06T11:52:20;0.10;;;0.00;;
11082;SDS011;5595;50.186;8.468;2023-08-06T11:54:59;0.08;;;0.00;;
11082;SDS011;5595;50.186;8.468;2023-08-06T11:57:28;0.00;;;0.00;;
11082;SDS011;5595;50.186;8.468;2023-08-06T11:59:57;0.00;;;0.00;;
11082;SDS011;5595;50.186;8.468;2023-08-06T12:02:27;0.00;;;0.00;;
11082;SDS011;5595;50.186;8.468;2023-08-06T12:05:02;0.10;;;0.10;;
11082;SDS011;5595;50.186;8.468;2023-08-06T12:07:36;0.00;;;0.00;;
11082;SDS011;5595;50.186;8.468;2023-08-06T12:10:04;1.08;;;0.13;;
11082;SDS011;5595;50.186;8.468;2023-08-06T12:12:31;0.10;;;0.10;;
11082;SDS011;5595;50.186;8.468;2023-08-06T12:14:58;1.08;;;0.20;;
11082;SDS011;5595;50.186;8.468;2023-08-06T12:17:25;0.10;;;0.10;;
11082;SDS011;5595;50.186;8.468;2023-08-06T12:19:52;0.00;;;0.00;;
11082;SDS011;5595;50.186;8.468;2023-08-06T12:22:20;0.20;;;0.10;;
11082;SDS011;5595;50.186;8.468;2023-08-06T12:24:48;0.20;;;0.10;;
11082;SDS011;5595;50.186;8.468;2023-08-06T12:27:15;0.00;;;0.00;;
11082;SDS011;5595;50.186;8.468;2023-08-06T12:29:42;0.10;;;0.10;;
11082;SDS011;5595;50.186;8.468;2023-08-06T12:32:12;0.05;;;0.03;;
11082;SDS011;5595;50.186;8.468;2023-08-06T12:34:39;0.10;;;0.10;;
11082;SDS011;5595;50.186;8.468;2023-08-06T12:37:07;0.17;;;0.10;;
11082;SDS011;5595;50.186;8.468;2023-08-06T12:39:35;0.63;;;0.17;;
11082;SDS011;5595;50.186;8.468;2023-08-06T12:42:04;0.10;;;0.10;;
11082;SDS011;5595;50.186;8.468;2023-08-06T12:44:32;0.28;;;0.00;;
11082;SDS011;5595;50.186;8.468;2023-08-06T12:46:58;0.00;;;0.00;;
11082;SDS011;5595;50.186;8.468;2023-08-06T12:49:25;0.10;;;0.10;;
11082;SDS011;5595;50.186;8.468;2023-08-06T12:51:54;0.30;;;0.10;;
11082;SDS011;5595;50.186;8.468;2023-08-06T12:54:28;0.47;;;0.10;;
11082;SDS011;5595;50.186;8.468;2023-08-06T12:57:01;0.10;;;0.10;;
11082;SDS011;5595;50.186;8.468;2023-08-06T12:59:29;0.00;;;0.00;;
11082;SDS011;5595;50.186;8.468;2023-08-06T13:01:56;0.10;;;0.10;;
11082;SDS011;5595;50.186;8.468;2023-08-06T13:04:23;0.00;;;0.00;;
11082;SDS011;5595;50.186;8.468;2023-08-06T13:06:50;0.10;;;0.10;;
11082;SDS011;5595;50.186;8.468;2023-08-06T13:09:17;0.15;;;0.10;;
11082;SDS011;5595;50.186;8.468;2023-08-06T13:11:43;0.90;;;0.10;;
11082;SDS011;5595;50.186;8.468;2023-08-06T13:14:12;0.05;;;0.05;;
11082;SDS011;5595;50.186;8.468;2023-08-06T13:16:41;0.03;;;0.03;;
11082;SDS011;5595;50.186;8.468;2023-08-06T13:19:09;0.10;;;0.10;;
11082;SDS011;5595;50.186;8.468;2023-08-06T13:21:57;0.60;;;0.10;;
11082;SDS011;5595;50.186;8.468;2023-08-06T13:24:26;0.00;;;0.00;;
11082;SDS011;5595;50.186;8.468;2023-08-06T13:26:53;0.10;;;0.10;;
11082;SDS011;5595;50.186;8.468;2023-08-06T13:29:20;0.05;;;0.05;;
11082;SDS011;5595;50.186;8.468;2023-08-06T13:31:48;0.15;;;0.10;;
11082;SDS011;5595;50.186;8.468;2023-08-06T13:34:15;0.00;;;0.00;;
11082;SDS011;5595;50.186;8.468;2023-08-06T13:36:42;0.43;;;0.38;;
11082;SDS011;5595;50.186;8.468;2023-08-06T13:39:10;0.03;;;0.03;;
11082;SDS011;5595;50.186;8.468;2023-08-06T13:41:37;0.20;;;0.20;;
11082;SDS011;5595;50.186;8.468;2023-08-06T13:44:04;0.10;;;0.10;;
11082;SDS011;5595;50.186;8.468;2023-08-06T13:46:33;0.13;;;0.10;;
11082;SDS011;5595;50.186;8.468;2023-08-06T13:49:01;0.10;;;0.10;;
11082;SDS011;5595;50.186;8.468;2023-08-06T13:51:27;0.10;;;0.10;;
11082;SDS011;5595;50.186;8.468;2023-08-06T13:53:54;0.00;;;0.00;;
11082;SDS011;5595;50.186;8.468;2023-08-06T13:56:22;0.10;;;0.10;;
11082;SDS011;5595;50.186;8.468;2023-08-06T13:58:49;0.10;;;0.10;;
11082;SDS011;5595;50.186;8.468;2023-08-06T14:01:16;0.75;;;0.10;;
11082;SDS011;5595;50.186;8.468;2023-08-06T14:03:44;0.40;;;0.22;;
11082;SDS011;5595;50.186;8.468;2023-08-06T14:06:12;0.17;;;0.10;;
11082;SDS011;5595;50.186;8.468;2023-08-06T14:08:39;0.10;;;0.10;;
11082;SDS011;5595;50.186;8.468;2023-08-06T14:11:05;0.03;;;0.03;;
11082;SDS011;5595;50.186;8.468;2023-08-06T14:13:32;0.00;;;0.00;;
11082;SDS011;5595;50.186;8.468;2023-08-06T14:15:59;0.10;;;0.10;;
11082;SDS011;5595;50.186;8.468;2023-08-06T14:18:26;0.10;;;0.00;;
11082;SDS011;5595;50.186;8.468;2023-08-06T14:20:53;0.00;;;0.00;;
11082;SDS011;5595;50.186;8.468;2023-08-06T14:23:21;0.03;;;0.03;;
11082;SDS011;5595;50.186;8.468;2023-08-06T14:25:48;0.00;;;0.00;;
11082;SDS011;5595;50.186;8.468;2023-08-06T14:28:14;0.00;;;0.00;;
11082;SDS011;5595;50.186;8.468;2023-08-06T14:30:41;0.43;;;0.10;;
11082;SDS011;5595;50.186;8.468;2023-08-06T14:33:08;0.10;;;0.10;;
11082;SDS011;5595;50.186;8.468;2023-08-06T14:35:34;0.25;;;0.08;;
11082;SDS011;5595;50.186;8.468;2023-08-06T14:38:01;0.03;;;0.00;;
11082;SDS011;5595;50.186;8.468;2023-08-06T14:40:29;0.00;;;0.00;;
11082;SDS011;5595;50.186;8.468;2023-08-06T14:43:00;0.00;;;0.00;;
11082;SDS011;5595;50.186;8.468;2023-08-06T14:45:27;0.00;;;0.00;;
11082;SDS011;5595;50.186;8.468;2023-08-06T14:47:54;0.10;;;0.10;;
11082;SDS011;5595;50.186;8.468;2023-08-06T14:50:21;0.00;;;0.00;;
11082;SDS011;5595;50.186;8.468;2023-08-06T14:52:48;0.30;;;0.05;;
11082;SDS011;5595;50.186;8.468;2023-08-06T14:55:17;0.00;;;0.00;;
11082;SDS011;5595;50.186;8.468;2023-08-06T14:57:50;0.00;;;0.00;;
11082;SDS011;5595;50.186;8.468;2023-08-06T15:00:17;0.00;;;0.00;;
11082;SDS011;5595;50.186;8.468;2023-08-06T15:02:44;1.08;;;0.08;;
11082;SDS011;5595;50.186;8.468;2023-08-06T15:05:11;0.10;;;0.10;;
11082;SDS011;5595;50.186;8.468;2023-08-06T15:07:38;0.00;;;0.00;;
11082;SDS011;5595;50.186;8.468;2023-08-06T15:10:05;0.00;;;0.00;;